Time;durP1;ratioP1;P1;durP2;ratioP2;P2;SDS_P1;SDS_P2;PMS_P1;PMS_P2;Temp;Humidity;BMP_temperature;BMP_pressure;BME280_temperature;BME280_humidity;BME280_pressure;Samples;Min_cycle;Max_cycle;Signal;HPM_P1;HPM_P2
2021/03/30 00:01:06;;;;;;;68.28;32.47;;;;;;;;;;5134899;28;20023;-71
2021/03/30 00:03:32;;;;;;;54.50;31.52;;;;;;;;;;5134637;28;20055;-71
2021/03/30 00:05:58;;;;;;;55.75;31.15;;;;;;;;;;5134801;28;20016;-70
2021/03/30 00:08:24;;;;;;;55.13;29.75;;;;;;;;;;5116203;28;20057;-71
2021/03/30 00:10:51;;;;;;;61.90;28.92;;;;;;;;;;5117457;27;20026;-70
2021/03/30 00:13:17;;;;;;;57.00;30.08;;;;;;;;;;5119830;27;20073;-71
2021/03/30 00:15:43;;;;;;;57.20;31.10;;;;;;;;;;5120053;27;20027;-70
2021/03/30 00:18:09;;;;;;;52.35;28.02;;;;;;;;;;5139053;27;20098;-70
2021/03/30 00:20:35;;;;;;;53.17;28.88;;;;;;;;;;5138449;27;20065;-70
2021/03/30 00:23:01;;;;;;;51.17;28.02;;;;;;;;;;5138385;27;20023;-70
2021/03/30 00:25:28;;;;;;;63.83;29.75;;;;;;;;;;5138835;27;20027;-71
2021/03/30 00:27:54;;;;;;;54.95;27.88;;;;;;;;;;5119868;27;20080;-70
2021/03/30 00:30:21;;;;;;;47.28;26.15;;;;;;;;;;5138501;27;20090;-70
2021/03/30 00:32:47;;;;;;;53.17;27.42;;;;;;;;;;5119626;27;20055;-70
2021/03/30 00:35:13;;;;;;;52.53;26.73;;;;;;;;;;5119959;27;20024;-71
2021/03/30 00:37:39;;;;;;;47.72;26.80;;;;;;;;;;5138052;27;20023;-71
2021/03/30 00:40:09;;;;;;;54.47;26.77;;;;;;;;;;5119577;27;20068;-69
2021/03/30 00:42:36;;;;;;;53.35;28.95;;;;;;;;;;5138499;27;20027;-71
2021/03/30 00:45:02;;;;;;;48.08;26.42;;;;;;;;;;5137890;27;20521;-71
2021/03/30 00:47:29;;;;;;;61.05;32.00;;;;;;;;;;5119402;27;20033;-71
2021/03/30 00:49:56;;;;;;;62.70;31.23;;;;;;;;;;5119609;27;20512;-71
2021/03/30 00:52:22;;;;;;;69.50;34.08;;;;;;;;;;5137654;27;20385;-72
2021/03/30 00:54:49;;;;;;;63.33;33.92;;;;;;;;;;5137382;27;20026;-71
2021/03/30 00:57:16;;;;;;;56.38;28.92;;;;;;;;;;5119549;27;20019;-71
2021/03/30 00:59:42;;;;;;;;;;;;;;;;;;5138316;27;20019;-69
2021/03/30 01:02:08;;;;;;;57.92;32.20;;;;;;;;;;5119052;27;19904;-71
2021/03/30 01:04:34;;;;;;;68.78;33.05;;;;;;;;;;5137795;27;20023;-72
2021/03/30 01:07:01;;;;;;;67.30;32.70;;;;;;;;;;5137443;27;20521;-71
2021/03/30 01:09:45;;;;;;;65.38;33.70;;;;;;;;;;5137112;27;20019;-71
2021/03/30 01:12:30;;;;;;;66.68;35.13;;;;;;;;;;5118890;27;20043;-71
2021/03/30 01:15:09;;;;;;;74.40;37.33;;;;;;;;;;5137533;27;20055;-71
2021/03/30 01:17:56;;;;;;;82.65;37.22;;;;;;;;;;5137611;27;20031;-71
2021/03/30 01:20:22;;;;;;;;;;;;;;;;;;5138071;27;20025;-72
2021/03/30 01:22:55;;;;;;;62.90;32.67;;;;;;;;;;5118264;27;19903;-71
2021/03/30 01:25:22;;;;;;;66.00;30.25;;;;;;;;;;5137660;27;20402;-71
2021/03/30 01:27:51;;;;;;;59.30;30.77;;;;;;;;;;5137141;27;20023;-71
2021/03/30 01:30:19;;;;;;;58.47;32.58;;;;;;;;;;5137005;27;20472;-71
2021/03/30 01:32:48;;;;;;;57.38;29.90;;;;;;;;;;5118744;27;20035;-71
2021/03/30 01:35:16;;;;;;;55.58;31.00;;;;;;;;;;5136971;27;20375;-71
2021/03/30 01:37:43;;;;;;;58.28;30.52;;;;;;;;;;5136851;27;20365;-71
2021/03/30 01:40:11;;;;;;;53.42;30.60;;;;;;;;;;5118759;27;20043;-70
2021/03/30 01:42:37;;;;;;;;;;;;;;;;;;5137222;27;20019;-71
2021/03/30 01:45:04;;;;;;;55.03;28.70;;;;;;;;;;5136768;27;19903;-74
2021/03/30 01:47:31;;;;;;;51.88;27.60;;;;;;;;;;5137288;27;20072;-74
2021/03/30 01:49:59;;;;;;;55.00;27.30;;;;;;;;;;5118194;27;20485;-70
2021/03/30 01:52:24;;;;;;;;;;;;;;;;;;5137866;27;20487;-74
2021/03/30 01:54:51;;;;;;;51.53;26.73;;;;;;;;;;5136960;27;19903;-71
2021/03/30 01:57:19;;;;;;;47.92;24.88;;;;;;;;;;5136734;27;20090;-72
2021/03/30 01:59:45;;;;;;;46.30;24.77;;;;;;;;;;5136485;27;20039;-72
2021/03/30 02:02:12;;;;;;;42.97;23.93;;;;;;;;;;5136533;27;20107;-72
2021/03/30 02:04:39;;;;;;;43.08;24.33;;;;;;;;;;5136301;27;20103;-72
2021/03/30 02:07:07;;;;;;;41.17;22.95;;;;;;;;;;5136583;27;20520;-72
2021/03/30 02:09:41;;;;;;;46.28;22.98;;;;;;;;;;5136255;27;20385;-72
2021/03/30 02:12:13;;;;;;;44.70;24.77;;;;;;;;;;5136466;27;20432;-73
2021/03/30 02:14:40;;;;;;;37.38;22.40;;;;;;;;;;5117956;27;20084;-73
2021/03/30 02:17:16;;;;;;;44.70;22.73;;;;;;;;;;5117946;27;20023;-72
2021/03/30 02:19:51;;;;;;;39.63;20.95;;;;;;;;;;5136152;27;20558;-72
2021/03/30 02:22:23;;;;;;;41.75;20.15;;;;;;;;;;5136303;27;20027;-72
2021/03/30 02:24:49;;;;;;;33.95;19.27;;;;;;;;;;5136127;27;20019;-72
2021/03/30 02:27:16;;;;;;;32.80;20.05;;;;;;;;;;5117975;27;20023;-71
2021/03/30 02:29:43;;;;;;;35.97;20.40;;;;;;;;;;5135908;27;20434;-72
2021/03/30 02:32:10;;;;;;;35.13;20.63;;;;;;;;;;5135713;27;20027;-72
2021/03/30 02:34:38;;;;;;;35.55;19.65;;;;;;;;;;5116842;27;20035;-71
2021/03/30 02:37:05;;;;;;;38.35;20.05;;;;;;;;;;5136038;27;20023;-71
2021/03/30 02:39:31;;;;;;;43.85;22.77;;;;;;;;;;5135472;27;20367;-71
2021/03/30 02:41:58;;;;;;;39.28;21.73;;;;;;;;;;5135876;27;20019;-71
2021/03/30 02:44:26;;;;;;;41.67;20.63;;;;;;;;;;5135617;27;20019;-72
2021/03/30 02:46:54;;;;;;;46.28;22.13;;;;;;;;;;5117073;27;20157;-71
2021/03/30 02:49:21;;;;;;;39.13;21.20;;;;;;;;;;5117615;27;20034;-71
2021/03/30 02:51:47;;;;;;;;;;;;;;;;;;5136146;27;20055;-72
2021/03/30 02:54:15;;;;;;;40.03;19.95;;;;;;;;;;5135307;27;20011;-71
2021/03/30 02:56:41;;;;;;;42.85;22.65;;;;;;;;;;5117192;27;20512;-73
2021/03/30 02:59:08;;;;;;;31.17;18.05;;;;;;;;;;5135294;27;20476;-73
2021/03/30 03:01:34;;;;;;;34.80;18.60;;;;;;;;;;5116483;27;20027;-74
2021/03/30 03:04:01;;;;;;;32.28;19.15;;;;;;;;;;5135491;27;20110;-74
2021/03/30 03:06:28;;;;;;;35.15;20.75;;;;;;;;;;5116950;27;20076;-74
2021/03/30 03:08:55;;;;;;;40.07;19.30;;;;;;;;;;5116654;27;20029;-72
2021/03/30 03:11:21;;;;;;;36.13;18.98;;;;;;;;;;5135606;27;20243;-72
2021/03/30 03:13:49;;;;;;;31.60;17.20;;;;;;;;;;5112819;28;20075;-72
2021/03/30 03:16:17;;;;;;;32.78;18.90;;;;;;;;;;5114750;28;20078;-72
2021/03/30 03:18:43;;;;;;;28.48;17.58;;;;;;;;;;5113978;28;20027;-73
2021/03/30 03:21:10;;;;;;;31.05;17.48;;;;;;;;;;5114616;28;20023;-72
2021/03/30 03:23:40;;;;;;;34.63;19.70;;;;;;;;;;5114907;28;20481;-69
2021/03/30 03:26:12;;;;;;;32.70;18.73;;;;;;;;;;5105443;28;20024;-72
2021/03/30 03:28:42;;;;;;;33.80;20.48;;;;;;;;;;5104987;28;20090;-72
2021/03/30 03:31:09;;;;;;;30.45;18.23;;;;;;;;;;5094853;28;20020;-73
2021/03/30 03:33:35;;;;;;;31.77;19.23;;;;;;;;;;5101888;28;20028;-72
2021/03/30 03:36:02;;;;;;;35.85;19.33;;;;;;;;;;5095618;28;20026;-72
2021/03/30 03:38:28;;;;;;;36.05;20.60;;;;;;;;;;5102775;28;20085;-73
2021/03/30 03:40:54;;;;;;;31.38;19.08;;;;;;;;;;5103967;28;20019;-72
2021/03/30 03:43:20;;;;;;;35.20;19.38;;;;;;;;;;5095696;28;20031;-72
2021/03/30 03:45:47;;;;;;;42.42;25.73;;;;;;;;;;5113489;28;20046;-73
2021/03/30 03:48:13;;;;;;;37.95;23.77;;;;;;;;;;5099108;28;20028;-72
2021/03/30 03:50:39;;;;;;;37.95;23.90;;;;;;;;;;5108206;28;20027;-72
2021/03/30 03:53:06;;;;;;;47.10;26.70;;;;;;;;;;5101646;28;20470;-72
2021/03/30 03:55:32;;;;;;;49.33;25.75;;;;;;;;;;5107644;28;20027;-73
2021/03/30 03:58:07;;;;;;;43.28;24.00;;;;;;;;;;5111178;28;20115;-73
2021/03/30 04:00:34;;;;;;;38.70;21.50;;;;;;;;;;5099871;28;20104;-72
2021/03/30 04:03:19;;;;;;;39.45;23.20;;;;;;;;;;5106663;28;20034;-73
2021/03/30 04:05:57;;;;;;;47.58;25.50;;;;;;;;;;5113011;28;20012;-73
2021/03/30 04:08:27;;;;;;;41.80;24.08;;;;;;;;;;5103246;28;20077;-73
2021/03/30 04:10:53;;;;;;;41.00;24.75;;;;;;;;;;5091438;28;20074;-73
2021/03/30 04:13:21;;;;;;;42.28;24.73;;;;;;;;;;5092626;28;20431;-73
2021/03/30 04:15:47;;;;;;;;;;;;;;;;;;5112233;28;20024;-74
2021/03/30 04:18:13;;;;;;;42.58;25.88;;;;;;;;;;5093490;28;19910;-74
2021/03/30 04:20:39;;;;;;;48.92;27.50;;;;;;;;;;5094019;28;20377;-73
2021/03/30 04:23:05;;;;;;;38.88;25.73;;;;;;;;;;5113370;28;20024;-74
2021/03/30 04:25:31;;;;;;;41.40;27.40;;;;;;;;;;5113667;28;20549;-75
2021/03/30 04:27:57;;;;;;;44.70;26.58;;;;;;;;;;5113848;28;20392;-74
2021/03/30 04:30:24;;;;;;;47.72;26.63;;;;;;;;;;5114124;28;20027;-73
2021/03/30 04:32:50;;;;;;;43.72;26.00;;;;;;;;;;5113500;28;20045;-73
2021/03/30 04:35:17;;;;;;;41.35;26.20;;;;;;;;;;5095554;28;20385;-73
2021/03/30 04:37:43;;;;;;;49.20;27.20;;;;;;;;;;5113204;28;20096;-73
2021/03/30 04:40:10;;;;;;;44.15;27.40;;;;;;;;;;5113480;28;20027;-73
2021/03/30 04:42:36;;;;;;;;;;;;;;;;;;5095842;28;20030;-74
2021/03/30 04:45:03;;;;;;;41.00;23.95;;;;;;;;;;5113525;28;19904;-73
2021/03/30 04:47:29;;;;;;;36.58;23.98;;;;;;;;;;5113700;28;20041;-73
2021/03/30 04:49:55;;;;;;;43.35;24.20;;;;;;;;;;5113987;28;20104;-73
2021/03/30 04:52:21;;;;;;;42.88;24.20;;;;;;;;;;5113280;28;20541;-74
2021/03/30 04:54:48;;;;;;;45.25;24.73;;;;;;;;;;5113328;28;20102;-73
2021/03/30 04:57:14;;;;;;;44.13;22.77;;;;;;;;;;5115897;28;20095;-73
2021/03/30 04:59:40;;;;;;;49.65;26.25;;;;;;;;;;5117092;28;20073;-73
2021/03/30 05:02:06;;;;;;;49.08;25.95;;;;;;;;;;5117634;28;20028;-73
2021/03/30 05:04:32;;;;;;;52.28;26.63;;;;;;;;;;5117482;28;20167;-74
2021/03/30 05:06:58;;;;;;;42.10;23.67;;;;;;;;;;5098946;28;20445;-74
2021/03/30 05:09:25;;;;;;;56.55;28.67;;;;;;;;;;5117174;28;20030;-74
2021/03/30 05:11:51;;;;;;;59.70;30.48;;;;;;;;;;5117175;28;20088;-74
2021/03/30 05:14:17;;;;;;;60.88;31.30;;;;;;;;;;5094802;28;20063;-67
2021/03/30 05:16:43;;;;;;;66.82;34.75;;;;;;;;;;5096678;28;20020;-68
2021/03/30 05:19:09;;;;;;;57.17;31.35;;;;;;;;;;5095347;28;20024;-68
2021/03/30 05:21:35;;;;;;;58.65;32.55;;;;;;;;;;5096368;28;20024;-68
2021/03/30 05:24:01;;;;;;;66.95;31.40;;;;;;;;;;5097107;28;20028;-68
2021/03/30 05:26:27;;;;;;;54.20;31.70;;;;;;;;;;5095192;28;20067;-67
2021/03/30 05:28:53;;;;;;;63.88;32.83;;;;;;;;;;5096169;28;20062;-67
2021/03/30 05:31:20;;;;;;;70.35;38.15;;;;;;;;;;5096400;28;20526;-70
2021/03/30 05:33:46;;;;;;;61.10;35.80;;;;;;;;;;5095970;28;20107;-72
2021/03/30 05:36:14;;;;;;;70.22;39.47;;;;;;;;;;5095034;28;20106;-70
2021/03/30 05:38:40;;;;;;;54.60;31.33;;;;;;;;;;5094950;28;20024;-70
2021/03/30 05:41:06;;;;;;;46.50;27.63;;;;;;;;;;5094687;28;20577;-71
2021/03/30 05:43:32;;;;;;;43.10;23.08;;;;;;;;;;5096152;28;20028;-70
2021/03/30 05:46:02;;;;;;;40.35;23.80;;;;;;;;;;5096379;28;20016;-71
2021/03/30 05:48:28;;;;;;;45.00;24.65;;;;;;;;;;5094483;28;20028;-72
2021/03/30 05:50:54;;;;;;;36.15;22.73;;;;;;;;;;5094810;28;20046;-69
2021/03/30 05:53:23;;;;;;;45.30;22.45;;;;;;;;;;5095064;28;20375;-70
2021/03/30 05:55:52;;;;;;;37.53;20.75;;;;;;;;;;5094014;28;20020;-69
2021/03/30 05:58:19;;;;;;;39.65;22.50;;;;;;;;;;5095534;28;20441;-72
2021/03/30 06:00:48;;;;;;;39.70;21.40;;;;;;;;;;5094585;28;20381;-72
2021/03/30 06:03:15;;;;;;;47.83;21.48;;;;;;;;;;5095822;28;20020;-72
2021/03/30 06:05:42;;;;;;;37.90;21.73;;;;;;;;;;5094163;28;20031;-73
2021/03/30 06:08:08;;;;;;;30.88;19.52;;;;;;;;;;5093158;28;20024;-74
2021/03/30 06:10:36;;;;;;;37.28;20.63;;;;;;;;;;5094087;28;20024;-72
2021/03/30 06:13:03;;;;;;;37.47;19.45;;;;;;;;;;5095532;28;20030;-73
2021/03/30 06:15:30;;;;;;;39.10;20.48;;;;;;;;;;5098422;28;20488;-70
2021/03/30 06:17:56;;;;;;;35.97;20.63;;;;;;;;;;5097314;28;20051;-69
2021/03/30 06:20:27;;;;;;;35.45;21.48;;;;;;;;;;5115542;28;20095;-72
2021/03/30 06:22:54;;;;;;;49.97;26.42;;;;;;;;;;5115395;28;20207;-71
2021/03/30 06:25:39;;;;;;;48.60;27.60;;;;;;;;;;5115400;28;20470;-72
2021/03/30 06:28:14;;;;;;;50.15;26.75;;;;;;;;;;5115656;28;20019;-73
2021/03/30 06:30:53;;;;;;;57.13;28.98;;;;;;;;;;5115442;28;20024;-73
2021/03/30 06:33:19;;;;;;;52.97;29.20;;;;;;;;;;5097236;28;20019;-71
2021/03/30 06:35:46;;;;;;;50.70;26.00;;;;;;;;;;5115207;28;20015;-71
2021/03/30 06:38:12;;;;;;;50.05;25.40;;;;;;;;;;5096854;28;20016;-71
2021/03/30 06:40:40;;;;;;;45.65;24.08;;;;;;;;;;5097175;28;20047;-71
2021/03/30 06:46:08;;;;;;;65.80;28.52;;;;;;;;;;5115091;28;20081;-73
2021/03/30 06:48:34;;;;;;;70.20;31.15;;;;;;;;;;5097851;28;20407;-74
2021/03/30 06:51:21;;;;;;;55.67;30.25;;;;;;;;;;5114600;28;20055;-73
2021/03/30 06:53:47;;;;;;;42.22;23.92;;;;;;;;;;5096851;28;20062;-73
2021/03/30 06:56:13;;;;;;;39.42;21.20;;;;;;;;;;5115130;28;20039;-73
2021/03/30 06:58:56;;;;;;;47.67;25.08;;;;;;;;;;5096535;28;20026;-74
2021/03/30 07:01:22;;;;;;;36.08;20.15;;;;;;;;;;5114871;28;20023;-73
2021/03/30 07:03:49;;;;;;;39.30;19.83;;;;;;;;;;5096720;28;20121;-73
2021/03/30 07:06:16;;;;;;;34.10;19.98;;;;;;;;;;5096361;28;20256;-74
2021/03/30 07:08:42;;;;;;;43.20;21.23;;;;;;;;;;5114879;28;20046;-73
2021/03/30 07:11:08;;;;;;;29.73;19.63;;;;;;;;;;5096549;28;20420;-73
2021/03/30 07:13:34;;;;;;;37.42;20.00;;;;;;;;;;5114389;28;20493;-73
2021/03/30 07:16:02;;;;;;;36.53;19.63;;;;;;;;;;5114624;28;20024;-71
2021/03/30 07:18:35;;;;;;;30.92;18.33;;;;;;;;;;5096489;28;20497;-71
2021/03/30 07:21:02;;;;;;;29.25;16.52;;;;;;;;;;5114599;28;20039;-71
2021/03/30 07:23:39;;;;;;;39.22;21.55;;;;;;;;;;5096362;28;20164;-71
2021/03/30 07:26:06;;;;;;;70.85;44.30;;;;;;;;;;5096080;28;20023;-71
2021/03/30 07:28:32;;;;;;;;;;;;;;;;;;5115271;28;20106;-71
2021/03/30 07:31:02;;;;;;;55.95;30.35;;;;;;;;;;5096240;28;20007;-71
2021/03/30 07:33:47;;;;;;;64.30;29.60;;;;;;;;;;5095775;28;20027;-71
2021/03/30 07:36:14;;;;;;;53.17;24.35;;;;;;;;;;5114122;28;20385;-71
2021/03/30 07:38:45;;;;;;;58.33;25.10;;;;;;;;;;5114459;28;20046;-71
2021/03/30 07:41:11;;;;;;;46.35;23.95;;;;;;;;;;5114145;28;20491;-72
2021/03/30 07:43:37;;;;;;;75.28;32.35;;;;;;;;;;5114050;28;20034;-71
2021/03/30 07:46:04;;;;;;;48.03;23.20;;;;;;;;;;5114331;28;20024;-70
2021/03/30 07:48:31;;;;;;;58.17;26.88;;;;;;;;;;5095655;28;20111;-70
2021/03/30 07:51:02;;;;;;;;;;;;;;;;;;5097276;28;20361;-70
2021/03/30 07:53:51;;;;;;;49.45;22.63;;;;;;;;;;5114206;28;20003;-71
2021/03/30 07:56:27;;;;;;;40.35;20.92;;;;;;;;;;5114140;28;20104;-73
2021/03/30 07:58:54;;;;;;;51.33;25.52;;;;;;;;;;5114744;28;20019;-71
2021/03/30 08:01:24;;;;;;;46.58;24.60;;;;;;;;;;5113843;28;20016;-68
2021/03/30 08:03:52;;;;;;;41.63;20.38;;;;;;;;;;5095790;28;20066;-71
2021/03/30 08:06:21;;;;;;;42.08;19.52;;;;;;;;;;5114067;28;20020;-72
2021/03/30 08:08:51;;;;;;;32.67;17.80;;;;;;;;;;5100465;28;20023;-68
2021/03/30 08:11:40;;;;;;;32.17;17.20;;;;;;;;;;5123218;28;20497;-70
2021/03/30 08:14:18;;;;;;;29.20;15.65;;;;;;;;;;5123163;28;20043;-71
2021/03/30 08:16:46;;;;;;;24.00;12.60;;;;;;;;;;5105146;28;20415;-71
2021/03/30 08:19:13;;;;;;;22.77;11.20;;;;;;;;;;5098039;28;20049;-71
2021/03/30 08:21:52;;;;;;;25.25;11.32;;;;;;;;;;5095119;28;20027;-71
2021/03/30 08:24:18;;;;;;;19.83;8.93;;;;;;;;;;5113908;28;20434;-70
2021/03/30 08:26:45;;;;;;;18.67;8.82;;;;;;;;;;5113922;28;20534;-68
2021/03/30 08:29:15;;;;;;;14.35;7.60;;;;;;;;;;5095308;28;20049;-68
2021/03/30 08:31:42;;;;;;;17.85;7.43;;;;;;;;;;5114828;28;20042;-68
2021/03/30 08:34:08;;;;;;;;;;;;;;;;;;5117930;28;20020;-68
2021/03/30 08:36:47;;;;;;;43.60;16.05;;;;;;;;;;5117317;28;19907;-72
2021/03/30 08:39:33;;;;;;;27.75;11.50;;;;;;;;;;5100138;28;20407;-71
2021/03/30 08:42:05;;;;;;;42.60;17.98;;;;;;;;;;5117230;28;20024;-67
2021/03/30 08:44:42;;;;;;;42.90;15.95;;;;;;;;;;5099081;28;20055;-69
2021/03/30 08:47:08;;;;;;;;;;;;;;;;;;5100707;28;20019;-72
2021/03/30 08:49:41;;;;;;;15.50;4.97;;;;;;;;;;5117107;28;20272;-63
2021/03/30 08:52:10;;;;;;;16.50;7.53;;;;;;;;;;5117603;28;20016;-68
2021/03/30 08:54:45;;;;;;;19.85;9.48;;;;;;;;;;5118015;28;20019;-66
2021/03/30 08:57:12;;;;;;;16.98;9.07;;;;;;;;;;5098897;28;20039;-67
2021/03/30 08:59:39;;;;;;;30.60;14.20;;;;;;;;;;5117664;28;20020;-71
2021/03/30 09:02:06;;;;;;;16.65;6.40;;;;;;;;;;5099123;28;20028;-68
2021/03/30 09:04:37;;;;;;;11.55;5.55;;;;;;;;;;5116918;28;20103;-69
2021/03/30 09:07:04;;;;;;;9.82;3.85;;;;;;;;;;5099183;28;20406;-67
2021/03/30 09:09:34;;;;;;;7.88;3.80;;;;;;;;;;5117279;28;20019;-70
2021/03/30 09:12:00;;;;;;;9.80;4.80;;;;;;;;;;5116817;28;20049;-69
2021/03/30 09:14:27;;;;;;;7.40;3.28;;;;;;;;;;5098384;28;20062;-66
2021/03/30 09:16:53;;;;;;;9.70;4.15;;;;;;;;;;5099357;28;20023;-69
2021/03/30 09:19:33;;;;;;;5.57;2.35;;;;;;;;;;5116421;28;20047;-66
2021/03/30 09:22:01;;;;;;;11.90;3.45;;;;;;;;;;5117155;28;20012;-68
2021/03/30 09:24:49;;;;;;;7.43;2.67;;;;;;;;;;5116599;28;20388;-67
2021/03/30 09:27:20;;;;;;;5.30;2.03;;;;;;;;;;5117039;28;20077;-66
2021/03/30 09:29:47;;;;;;;6.53;4.15;;;;;;;;;;5098950;28;20127;-67
2021/03/30 09:32:13;;;;;;;10.73;3.70;;;;;;;;;;5098493;28;20068;-67
2021/03/30 09:34:39;;;;;;;9.82;5.30;;;;;;;;;;5116952;28;20051;-69
2021/03/30 09:37:06;;;;;;;12.90;5.40;;;;;;;;;;5116682;28;20031;-69
2021/03/30 09:39:34;;;;;;;13.95;5.53;;;;;;;;;;5116638;28;20019;-70
2021/03/30 09:42:00;;;;;;;12.05;5.75;;;;;;;;;;5116140;28;20024;-70
2021/03/30 09:44:26;;;;;;;13.13;6.60;;;;;;;;;;5116427;28;20032;-69
2021/03/30 09:46:55;;;;;;;16.40;5.85;;;;;;;;;;5116542;28;20080;-67
2021/03/30 09:49:22;;;;;;;10.35;5.00;;;;;;;;;;5097819;28;20453;-70
2021/03/30 09:51:49;;;;;;;13.57;6.65;;;;;;;;;;5116438;28;20077;-71
2021/03/30 09:54:25;;;;;;;16.27;6.20;;;;;;;;;;5116309;28;20028;-70
2021/03/30 09:57:00;;;;;;;8.15;4.93;;;;;;;;;;5116013;28;20244;-70
2021/03/30 09:59:27;;;;;;;9.73;5.68;;;;;;;;;;5116506;28;20028;-70
2021/03/30 10:01:53;;;;;;;15.15;4.88;;;;;;;;;;5097954;28;20088;-70
2021/03/30 10:04:21;;;;;;;14.63;6.90;;;;;;;;;;5097629;28;20496;-70
2021/03/30 10:06:47;;;;;;;9.60;3.67;;;;;;;;;;5097756;28;20016;-70
2021/03/30 10:09:13;;;;;;;9.43;3.63;;;;;;;;;;5115782;28;20488;-70
2021/03/30 10:11:39;;;;;;;11.60;2.85;;;;;;;;;;5115422;28;20080;-70
2021/03/30 10:14:21;;;;;;;7.75;2.72;;;;;;;;;;5115507;28;20075;-70
2021/03/30 10:16:48;;;;;;;7.85;3.20;;;;;;;;;;5116125;28;20084;-70
2021/03/30 10:19:15;;;;;;;10.13;4.22;;;;;;;;;;5115297;28;20043;-72
2021/03/30 10:21:42;;;;;;;10.60;4.88;;;;;;;;;;5098382;28;20349;-73
2021/03/30 10:24:18;;;;;;;9.93;3.25;;;;;;;;;;5115584;28;20020;-71
2021/03/30 10:27:20;;;;;;;10.03;4.13;;;;;;;;;;5115892;28;20492;-72
2021/03/30 10:29:46;;;;;;;7.60;2.80;;;;;;;;;;5033197;28;20032;-71
2021/03/30 10:32:17;;;;;;;8.90;2.50;;;;;;;;;;5080596;28;20028;-73
2021/03/30 10:34:44;;;;;;;7.35;2.47;;;;;;;;;;5115398;28;20496;-71
2021/03/30 10:37:12;;;;;;;7.70;3.10;;;;;;;;;;5097307;28;20534;-68
2021/03/30 10:39:42;;;;;;;7.65;2.75;;;;;;;;;;5096861;28;20031;-69
2021/03/30 10:42:13;;;;;;;6.90;2.83;;;;;;;;;;5115346;28;20492;-69
2021/03/30 10:44:55;;;;;;;8.70;2.78;;;;;;;;;;5116094;28;20046;-69
2021/03/30 10:47:23;;;;;;;5.32;2.72;;;;;;;;;;5115100;28;20016;-69
2021/03/30 10:49:50;;;;;;;6.85;3.10;;;;;;;;;;5115503;28;20019;-69
2021/03/30 10:52:22;;;;;;;6.32;3.05;;;;;;;;;;5096696;28;20034;-69
2021/03/30 10:54:50;;;;;;;7.53;3.03;;;;;;;;;;5114926;28;20027;-69
2021/03/30 10:57:18;;;;;;;6.63;2.53;;;;;;;;;;5115179;28;20106;-69
2021/03/30 10:59:44;;;;;;;8.30;2.35;;;;;;;;;;5114487;28;20358;-68
2021/03/30 11:02:11;;;;;;;5.43;1.87;;;;;;;;;;5097427;28;20020;-69
2021/03/30 11:04:38;;;;;;;6.15;3.22;;;;;;;;;;5115283;28;20039;-69
2021/03/30 11:07:05;;;;;;;8.85;2.60;;;;;;;;;;5096955;28;20114;-69
2021/03/30 11:09:31;;;;;;;7.00;3.03;;;;;;;;;;5114933;28;20030;-70
2021/03/30 11:11:57;;;;;;;7.30;3.57;;;;;;;;;;5096798;28;20038;-69
2021/03/30 11:14:23;;;;;;;8.38;3.13;;;;;;;;;;5114059;28;20130;-70
2021/03/30 11:16:49;;;;;;;9.07;4.32;;;;;;;;;;5114537;28;20095;-70
2021/03/30 11:19:16;;;;;;;5.93;3.08;;;;;;;;;;5114465;28;20405;-70
2021/03/30 11:21:42;;;;;;;5.22;2.67;;;;;;;;;;5114137;28;20023;-70
2021/03/30 11:24:13;;;;;;;5.85;2.55;;;;;;;;;;5096393;28;20035;-70
2021/03/30 11:26:43;;;;;;;13.02;6.28;;;;;;;;;;5096405;28;20023;-70
2021/03/30 11:29:16;;;;;;;6.82;4.47;;;;;;;;;;5114128;28;20020;-70
2021/03/30 11:31:53;;;;;;;15.70;5.78;;;;;;;;;;5096316;28;20469;-69
2021/03/30 11:34:26;;;;;;;8.50;4.05;;;;;;;;;;5114509;28;20499;-71
2021/03/30 11:36:59;;;;;;;16.27;6.80;;;;;;;;;;5097100;28;20035;-71
2021/03/30 11:39:26;;;;;;;11.20;5.35;;;;;;;;;;5114176;28;20492;-70
2021/03/30 11:41:52;;;;;;;4.43;2.15;;;;;;;;;;5095843;28;20035;-72
2021/03/30 11:44:18;;;;;;;8.57;3.03;;;;;;;;;;5114624;28;20027;-69
2021/03/30 11:46:44;;;;;;;8.10;2.85;;;;;;;;;;5114069;28;20015;-70
2021/03/30 11:49:10;;;;;;;11.13;4.05;;;;;;;;;;5114133;28;20073;-70
2021/03/30 11:51:36;;;;;;;4.47;2.85;;;;;;;;;;5095856;28;20026;-64
2021/03/30 11:54:02;;;;;;;6.43;2.67;;;;;;;;;;5113834;28;20034;-66
2021/03/30 11:56:29;;;;;;;36.17;29.37;;;;;;;;;;5113549;28;20346;-65
2021/03/30 11:58:55;;;;;;;28.98;17.20;;;;;;;;;;5113986;28;20024;-64
2021/03/30 12:01:21;;;;;;;11.02;5.75;;;;;;;;;;5113784;28;20024;-65
2021/03/30 12:03:47;;;;;;;7.68;2.70;;;;;;;;;;5113791;28;20374;-67
2021/03/30 12:06:13;;;;;;;5.97;3.80;;;;;;;;;;5116036;28;20464;-66
2021/03/30 12:08:40;;;;;;;14.52;9.45;;;;;;;;;;5118317;28;20102;-65
2021/03/30 12:11:06;;;;;;;9.88;5.25;;;;;;;;;;5117748;28;20027;-66
2021/03/30 12:13:32;;;;;;;11.82;5.55;;;;;;;;;;5117684;28;20020;-65
2021/03/30 12:15:58;;;;;;;11.98;6.95;;;;;;;;;;5117565;28;20028;-65
2021/03/30 12:18:24;;;;;;;10.40;7.10;;;;;;;;;;5116940;28;20103;-65
2021/03/30 12:20:50;;;;;;;20.30;14.93;;;;;;;;;;5117643;28;20026;-66
2021/03/30 12:23:16;;;;;;;8.75;6.50;;;;;;;;;;5117294;28;20089;-67
2021/03/30 12:25:43;;;;;;;14.07;4.80;;;;;;;;;;5117510;28;20016;-68
2021/03/30 12:28:09;;;;;;;8.30;3.55;;;;;;;;;;5118286;28;20032;-69
2021/03/30 12:30:35;;;;;;;7.75;3.28;;;;;;;;;;5117436;28;20024;-67
2021/03/30 12:33:01;;;;;;;5.15;3.35;;;;;;;;;;5118741;28;20027;-68
2021/03/30 12:35:27;;;;;;;5.53;2.17;;;;;;;;;;5117932;28;20478;-68
2021/03/30 12:37:54;;;;;;;12.48;7.10;;;;;;;;;;5117557;28;20519;-69
2021/03/30 12:40:20;;;;;;;11.70;7.55;;;;;;;;;;5117827;28;20103;-66
2021/03/30 12:42:48;;;;;;;21.13;17.23;;;;;;;;;;5117843;28;20024;-65
2021/03/30 12:45:14;;;;;;;7.70;3.63;;;;;;;;;;5117426;28;20016;-66
2021/03/30 12:47:40;;;;;;;8.40;3.20;;;;;;;;;;5117415;28;20032;-65
2021/03/30 12:50:07;;;;;;;10.73;3.33;;;;;;;;;;5114528;28;20027;-66
2021/03/30 12:52:33;;;;;;;10.63;3.80;;;;;;;;;;5116298;28;20030;-66
2021/03/30 12:55:10;;;;;;;4.75;2.55;;;;;;;;;;5113736;28;20381;-66
2021/03/30 12:57:37;;;;;;;6.80;3.22;;;;;;;;;;5098015;28;20023;-65
2021/03/30 13:00:05;;;;;;;9.65;2.92;;;;;;;;;;5118770;27;20410;-65
2021/03/30 13:02:32;;;;;;;6.60;4.30;;;;;;;;;;5136941;27;20015;-64
2021/03/30 13:04:58;;;;;;;11.10;6.43;;;;;;;;;;5137402;27;20024;-64
2021/03/30 13:07:24;;;;;;;24.52;14.55;;;;;;;;;;5136883;27;20354;-65
2021/03/30 13:09:51;;;;;;;7.25;4.13;;;;;;;;;;5136533;27;20027;-65
2021/03/30 13:12:17;;;;;;;11.75;6.38;;;;;;;;;;5135855;27;20023;-65
2021/03/30 13:14:43;;;;;;;5.15;2.47;;;;;;;;;;5136843;27;20046;-65
2021/03/30 13:17:09;;;;;;;11.70;3.88;;;;;;;;;;5136596;27;20019;-65
2021/03/30 13:19:36;;;;;;;15.38;5.97;;;;;;;;;;5136580;27;20073;-69
2021/03/30 13:22:02;;;;;;;13.70;5.47;;;;;;;;;;5136814;27;20373;-70
2021/03/30 13:24:39;;;;;;;13.10;5.40;;;;;;;;;;5118122;27;20023;-70
2021/03/30 13:27:08;;;;;;;11.18;5.45;;;;;;;;;;5136818;27;20020;-70
2021/03/30 13:29:41;;;;;;;18.98;7.13;;;;;;;;;;5118427;27;20020;-71
2021/03/30 13:32:11;;;;;;;14.38;5.82;;;;;;;;;;5137063;27;20023;-70
2021/03/30 13:34:38;;;;;;;12.75;5.57;;;;;;;;;;5136565;27;20477;-70
2021/03/30 13:37:04;;;;;;;10.88;6.35;;;;;;;;;;5137166;27;20041;-70
2021/03/30 13:39:30;;;;;;;11.40;6.07;;;;;;;;;;5118542;27;20053;-70
2021/03/30 13:41:57;;;;;;;16.60;8.90;;;;;;;;;;5136476;27;20017;-70
2021/03/30 13:44:24;;;;;;;12.90;6.30;;;;;;;;;;5118663;27;20029;-69
2021/03/30 13:46:51;;;;;;;13.07;4.45;;;;;;;;;;5136636;27;20551;-70
2021/03/30 13:49:17;;;;;;;11.82;3.40;;;;;;;;;;5117888;27;20426;-70
2021/03/30 13:51:47;;;;;;;5.93;2.90;;;;;;;;;;5118297;27;20037;-70
2021/03/30 13:54:13;;;;;;;21.50;5.25;;;;;;;;;;5117862;27;20396;-68
2021/03/30 13:56:40;;;;;;;9.85;4.00;;;;;;;;;;5136530;27;20102;-68
2021/03/30 13:59:06;;;;;;;11.55;3.55;;;;;;;;;;5136504;27;20031;-67
2021/03/30 14:01:32;;;;;;;5.95;4.00;;;;;;;;;;5136368;27;20530;-67
2021/03/30 14:03:59;;;;;;;10.75;3.88;;;;;;;;;;5136502;27;20118;-66
2021/03/30 14:06:25;;;;;;;8.75;4.25;;;;;;;;;;5136166;27;20019;-67
2021/03/30 14:08:51;;;;;;;8.20;3.83;;;;;;;;;;5135567;27;20405;-66
2021/03/30 14:11:19;;;;;;;9.38;4.22;;;;;;;;;;5136423;27;20377;-66
2021/03/30 14:13:56;;;;;;;7.10;4.50;;;;;;;;;;5135985;27;20046;-66
2021/03/30 14:16:24;;;;;;;7.45;3.40;;;;;;;;;;5135687;27;20026;-66
2021/03/30 14:21:32;;;;;;;11.80;4.45;;;;;;;;;;5136066;27;20031;-67
2021/03/30 14:23:58;;;;;;;8.75;3.28;;;;;;;;;;5135449;27;20023;-66
2021/03/30 14:26:29;;;;;;;9.60;3.20;;;;;;;;;;5135380;27;20466;-68
2021/03/30 14:28:55;;;;;;;9.20;4.40;;;;;;;;;;5135266;27;20353;-66
2021/03/30 14:31:22;;;;;;;11.90;7.68;;;;;;;;;;5134661;27;20030;-65
2021/03/30 14:33:48;;;;;;;;;;;;;;;;;;5117426;27;20414;-65
2021/03/30 14:36:15;;;;;;;8.90;3.40;;;;;;;;;;5135170;27;19908;-65
2021/03/30 14:38:43;;;;;;;9.10;3.50;;;;;;;;;;5134949;27;20094;-66
2021/03/30 14:41:10;;;;;;;8.05;4.22;;;;;;;;;;5135973;27;20023;-70